Time;durP1;ratioP1;P1;durP2;ratioP2;P2;SDS_P1;SDS_P2;PMS_P1;PMS_P2;Temp;Humidity;BMP_temperature;BMP_pressure;BME280_temperature;BME280_humidity;BME280_pressure;Samples;Min_cycle;Max_cycle;Signal;HPM_P1;HPM_P2
2021/09/21 00:00:08;;;;;;;20.60;8.60;;;;;;;5.86;76.68;99484.12;112771;1197;107369;-72
2021/09/21 00:02:56;;;;;;;19.40;8.50;;;;;;;5.81;76.70;99481.86;112689;1197;98301;-71
2021/09/21 00:05:26;;;;;;;18.10;7.80;;;;;;;5.81;76.67;99486.76;112801;1196;98008;-71
2021/09/21 00:07:54;;;;;;;18.50;7.90;;;;;;;5.80;76.74;99487.19;112885;1196;110760;-72
2021/09/21 00:10:22;;;;;;;20.00;8.80;;;;;;;5.79;76.71;99487.06;112854;1196;97535;-72
2021/09/21 00:12:52;;;;;;;23.20;8.80;;;;;;;5.78;76.82;99496.61;112841;1196;107568;-72
2021/09/21 00:15:23;;;;;;;17.90;7.50;;;;;;;5.76;76.76;99491.05;112873;1196;98268;-71
2021/09/21 00:17:53;;;;;;;18.60;7.50;;;;;;;5.75;76.71;99492.70;112865;1196;98259;-71
2021/09/21 00:20:21;;;;;;;18.10;7.40;;;;;;;5.75;76.83;99494.11;112811;1197;111266;-70
2021/09/21 00:22:51;;;;;;;19.00;8.40;;;;;;;5.75;76.76;99495.16;112754;1196;97577;-72
2021/09/21 00:25:21;;;;;;;19.70;8.10;;;;;;;5.74;76.86;99497.31;112727;1197;108582;-71
2021/09/21 00:27:49;;;;;;;18.20;7.90;;;;;;;5.73;76.84;99492.77;112831;1196;97688;-71
2021/09/21 00:30:19;;;;;;;17.70;7.40;;;;;;;5.74;76.95;99494.85;112943;1196;95060;-71
2021/09/21 00:33:01;;;;;;;17.60;7.50;;;;;;;5.73;76.92;99492.95;112868;1196;111167;-72
2021/09/21 00:35:35;;;;;;;18.60;7.60;;;;;;;5.73;76.90;99490.67;112898;1196;96046;-72
2021/09/21 00:38:03;;;;;;;18.50;8.00;;;;;;;5.74;76.98;99490.98;112814;1196;107258;-74
2021/09/21 00:40:34;;;;;;;17.30;7.40;;;;;;;5.76;77.02;99489.48;112790;1197;97648;-72
2021/09/21 00:43:05;;;;;;;19.00;7.70;;;;;;;5.78;77.15;99490.44;112804;1196;97597;-70
2021/09/21 00:45:36;;;;;;;17.40;7.90;;;;;;;5.80;76.96;99489.98;112824;1196;110914;-71
2021/09/21 00:48:07;;;;;;;17.10;6.80;;;;;;;5.82;77.05;99484.96;112723;1196;97572;-69
2021/09/21 00:50:36;;;;;;;19.80;8.60;;;;;;;5.84;77.06;99488.77;112742;1196;107604;-70
2021/09/21 00:53:09;;;;;;;18.70;8.00;;;;;;;5.86;77.05;99489.05;112835;1196;97641;-70
2021/09/21 00:55:39;;;;;;;18.20;7.70;;;;;;;5.89;77.13;99488.38;112849;1196;97670;-70
2021/09/21 00:58:09;;;;;;;19.50;8.80;;;;;;;5.92;77.21;99486.27;112807;1196;110709;-70
2021/09/21 01:00:40;;;;;;;23.50;8.70;;;;;;;5.96;77.30;99482.58;112826;1196;98056;-70
2021/09/21 01:03:08;;;;;;;20.00;7.80;;;;;;;6.00;77.28;99479.41;112824;1196;107390;-70
2021/09/21 01:05:38;;;;;;;20.60;9.10;;;;;;;6.04;77.17;99476.27;112897;1196;97603;-71
2021/09/21 01:08:06;;;;;;;19.30;8.70;;;;;;;6.07;77.15;99479.64;112929;1196;97511;-71
2021/09/21 01:10:33;;;;;;;19.50;8.80;;;;;;;6.10;77.22;99482.99;112868;1197;110879;-72
2021/09/21 01:13:01;;;;;;;20.00;8.60;;;;;;;6.13;77.27;99483.55;112883;1196;97665;-72
2021/09/21 01:15:31;;;;;;;20.60;9.40;;;;;;;6.17;77.15;99483.41;112866;1196;107267;-72
2021/09/21 01:17:59;;;;;;;21.30;9.70;;;;;;;6.19;77.27;99479.59;112882;1196;97767;-71
2021/09/21 01:20:27;;;;;;;20.10;8.70;;;;;;;6.21;77.17;99486.19;112901;1197;97645;-72
2021/09/21 01:23:01;;;;;;;20.20;8.40;;;;;;;6.22;77.30;99483.83;112877;1196;111029;-70
2021/09/21 01:25:32;;;;;;;21.00;9.50;;;;;;;6.24;77.25;99488.85;112912;1197;95122;-73
2021/09/21 01:28:03;;;;;;;18.10;8.20;;;;;;;6.27;77.47;99492.44;112873;1197;106566;-73
2021/09/21 01:30:31;;;;;;;18.20;7.70;;;;;;;6.29;77.23;99484.58;113159;1196;96905;-73
2021/09/21 01:33:01;;;;;;;19.90;8.40;;;;;;;6.31;77.38;99483.60;113206;1197;97607;-72
2021/09/21 01:35:31;;;;;;;19.60;8.90;;;;;;;6.31;77.34;99482.34;113212;1196;111316;-74
2021/09/21 01:37:59;;;;;;;21.80;9.40;;;;;;;6.34;77.51;99488.23;113210;1196;97684;-74
2021/09/21 01:40:27;;;;;;;22.20;9.90;;;;;;;6.35;77.39;99488.16;113244;1195;107525;-74
2021/09/21 01:42:54;;;;;;;21.10;9.80;;;;;;;6.37;77.28;99491.77;113199;1195;95141;-71
2021/09/21 01:45:22;;;;;;;20.20;9.60;;;;;;;6.39;77.33;99493.78;113152;1195;97582;-70
2021/09/21 01:47:50;;;;;;;21.10;9.90;;;;;;;6.43;77.47;99493.98;113173;1195;110788;-69
2021/09/21 01:50:28;;;;;;;23.80;10.60;;;;;;;6.45;77.53;99494.01;112880;1196;96057;-70
2021/09/21 01:53:10;;;;;;;23.50;10.80;;;;;;;6.48;77.40;99506.59;113174;1195;107515;-72
2021/09/21 02:00:47;;;;;;;22.10;10.30;;;;;;;6.51;77.32;99508.36;113170;1195;111236;-71
2021/09/21 02:03:15;;;;;;;22.00;10.20;;;;;;;6.52;77.36;99506.16;113226;1195;98750;-70
2021/09/21 02:05:43;;;;;;;21.00;9.70;;;;;;;6.52;77.56;99503.35;113224;1195;107492;-72
2021/09/21 02:08:17;;;;;;;20.70;9.70;;;;;;;6.53;77.37;99502.45;113183;1196;95109;-71
2021/09/21 02:10:47;;;;;;;20.80;10.30;;;;;;;6.53;77.34;99499.59;113205;1195;95066;-71
2021/09/21 02:13:15;;;;;;;20.30;9.40;;;;;;;6.54;77.56;99503.77;113193;1195;111223;-71
2021/09/21 02:15:45;;;;;;;21.30;9.90;;;;;;;6.52;77.72;99498.96;113003;1195;97642;-71
2021/09/21 02:18:13;;;;;;;20.70;10.50;;;;;;;6.52;77.50;99498.61;112886;1196;108269;-70
2021/09/21 02:20:41;;;;;;;20.40;9.60;;;;;;;6.52;77.49;99502.13;112889;1196;97633;-68
2021/09/21 02:23:09;;;;;;;22.70;10.30;;;;;;;6.52;77.49;99501.63;112804;1196;98002;-70
2021/09/21 02:25:36;;;;;;;20.30;10.00;;;;;;;6.51;77.42;99499.75;112877;1197;111273;-70
2021/09/21 02:28:05;;;;;;;27.20;12.90;;;;;;;6.48;77.50;99497.91;112915;1196;97557;-70
2021/09/21 02:30:33;;;;;;;23.20;11.20;;;;;;;6.46;77.51;99501.92;112985;1196;107626;-71
2021/09/21 02:33:03;;;;;;;22.30;10.80;;;;;;;6.45;77.55;99493.88;113094;1195;97704;-71
2021/09/21 02:35:31;;;;;;;22.70;10.60;;;;;;;6.43;77.46;99492.73;113191;1195;97670;-71
2021/09/21 02:37:59;;;;;;;24.90;11.40;;;;;;;6.40;77.44;99496.90;113156;1195;110976;-72
2021/09/21 02:40:30;;;;;;;22.40;10.60;;;;;;;6.39;77.45;99498.69;113196;1195;95230;-70
2021/09/21 02:42:58;;;;;;;25.20;11.40;;;;;;;6.38;77.46;99498.23;113157;1195;107543;-72
2021/09/21 02:45:25;;;;;;;23.70;11.80;;;;;;;6.37;77.60;99501.98;112978;1196;97687;-71
2021/09/21 02:47:53;;;;;;;24.20;11.80;;;;;;;6.37;77.59;99504.29;112837;1196;98297;-71
2021/09/21 02:50:21;;;;;;;23.20;11.90;;;;;;;6.36;77.83;99505.18;112916;1197;111220;-71
2021/09/21 02:52:49;;;;;;;22.00;11.40;;;;;;;6.37;77.73;99505.12;112851;1197;95703;-72
2021/09/21 02:55:17;;;;;;;22.00;11.20;;;;;;;6.38;77.65;99509.52;112831;1196;107591;-72
2021/09/21 02:57:45;;;;;;;26.70;11.90;;;;;;;6.39;77.61;99510.52;112866;1196;98367;-71
2021/09/21 03:00:19;;;;;;;23.10;10.60;;;;;;;6.40;77.73;99513.11;113126;1195;97703;-71
2021/09/21 03:02:49;;;;;;;24.90;12.60;;;;;;;6.42;77.81;99511.46;112825;1197;111189;-68
2021/09/21 03:05:32;;;;;;;23.20;11.30;;;;;;;6.42;77.57;99513.38;113042;1195;97586;-72
2021/09/21 03:08:07;;;;;;;23.30;11.40;;;;;;;6.43;77.71;99509.48;112764;1196;107542;-72
2021/09/21 03:11:03;;;;;;;22.00;10.70;;;;;;;6.44;77.76;99513.10;112879;1196;97543;-69
2021/09/21 03:18:59;;;;;;;23.70;11.50;;;;;;;6.48;77.92;99524.54;113300;1196;97572;-72
2021/09/21 03:21:27;;;;;;;21.70;10.80;;;;;;;6.49;77.74;99528.69;112882;1196;107505;-71
2021/09/21 03:23:55;;;;;;;22.20;10.20;;;;;;;6.50;77.83;99522.86;112803;1195;97639;-73
2021/09/21 03:26:23;;;;;;;22.70;10.30;;;;;;;6.52;77.73;99528.92;112801;1196;95152;-72
2021/09/21 03:28:50;;;;;;;20.10;9.80;;;;;;;6.55;77.80;99530.90;112745;1196;111198;-72
2021/09/21 03:31:18;;;;;;;22.20;10.20;;;;;;;6.57;77.77;99533.98;112859;1196;97665;-72
2021/09/21 03:33:46;;;;;;;22.50;11.20;;;;;;;6.59;77.77;99531.05;112871;1196;105704;-69
2021/09/21 03:36:14;;;;;;;23.90;11.20;;;;;;;6.61;77.92;99531.34;112930;1196;97584;-71
2021/09/21 03:38:44;;;;;;;23.60;10.40;;;;;;;6.63;78.20;99533.85;112915;1196;95032;-71
2021/09/21 03:41:12;;;;;;;20.10;10.20;;;;;;;6.65;77.98;99537.45;112941;1196;111216;-72
2021/09/21 03:43:40;;;;;;;22.00;10.30;;;;;;;6.67;77.86;99536.33;112804;1196;99258;-73
2021/09/21 03:46:10;;;;;;;21.30;10.30;;;;;;;6.68;78.06;99532.36;112880;1197;107488;-73
2021/09/21 03:48:38;;;;;;;20.10;9.30;;;;;;;6.69;77.90;99539.20;112820;1196;97575;-72
2021/09/21 03:51:06;;;;;;;21.10;10.20;;;;;;;6.71;78.06;99536.31;112900;1197;97631;-72
2021/09/21 03:53:33;;;;;;;19.90;9.60;;;;;;;6.71;77.98;99538.06;112867;1196;110987;-73
2021/09/21 03:56:05;;;;;;;19.60;9.80;;;;;;;6.72;78.03;99541.17;112863;1196;97623;-74
2021/09/21 03:58:33;;;;;;;23.50;11.40;;;;;;;6.73;78.10;99542.01;112892;1197;107570;-73
2021/09/21 04:01:01;;;;;;;22.40;10.20;;;;;;;6.74;78.14;99539.48;112819;1196;96534;-72
2021/09/21 04:03:30;;;;;;;22.00;10.20;;;;;;;6.76;78.14;99537.98;113078;1195;95774;-72
2021/09/21 04:05:57;;;;;;;22.80;10.30;;;;;;;6.78;78.24;99532.27;113083;1195;111256;-73
2021/09/21 04:08:25;;;;;;;24.80;10.30;;;;;;;6.79;77.94;99532.90;112980;1195;97729;-72
2021/09/21 04:10:55;;;;;;;20.40;9.10;;;;;;;6.79;77.99;99536.60;112798;1196;107544;-71
2021/09/21 04:13:25;;;;;;;20.60;10.40;;;;;;;6.79;77.98;99532.52;112713;1196;98304;-72
2021/09/21 04:15:53;;;;;;;23.20;10.50;;;;;;;6.80;78.10;99537.99;112661;1196;97672;-72
2021/09/21 04:18:23;;;;;;;23.30;10.80;;;;;;;6.79;78.21;99536.08;112705;1196;111194;-72
2021/09/21 04:20:52;;;;;;;20.80;10.30;;;;;;;6.79;78.00;99536.61;112762;1196;97681;-72
2021/09/21 04:23:19;;;;;;;21.50;10.40;;;;;;;6.80;78.27;99537.97;112767;1197;106102;-72
2021/09/21 04:25:47;;;;;;;20.80;10.20;;;;;;;6.80;78.04;99536.35;112768;1196;97734;-75
2021/09/21 04:28:15;;;;;;;24.20;10.90;;;;;;;6.81;78.15;99536.15;112729;1197;95049;-71
2021/09/21 04:30:51;;;;;;;22.30;10.20;;;;;;;6.82;78.24;99540.86;113029;1196;110225;-73
2021/09/21 04:33:21;;;;;;;;;;;;;;;6.82;78.14;99535.92;112876;1196;97666;-71
2021/09/21 04:35:52;;;;;;;22.80;10.40;;;;;;;6.81;78.34;99533.14;112795;1196;107293;-74
2021/09/21 04:38:21;;;;;;;20.70;10.20;;;;;;;6.82;78.15;99534.32;112868;1196;97684;-73
2021/09/21 04:40:50;;;;;;;23.20;10.20;;;;;;;6.83;78.19;99536.05;113046;1195;96974;-70
2021/09/21 04:43:18;;;;;;;20.10;9.70;;;;;;;6.84;78.27;99531.02;112876;1196;111121;-71
2021/09/21 04:45:46;;;;;;;20.80;10.10;;;;;;;6.87;78.28;99534.27;112884;1196;97628;-70
2021/09/21 04:48:13;;;;;;;21.50;10.10;;;;;;;6.89;78.04;99540.33;112800;1196;107531;-70
2021/09/21 04:50:41;;;;;;;21.30;9.40;;;;;;;6.91;78.17;99542.39;112756;1196;98361;-71
2021/09/21 04:53:11;;;;;;;21.80;10.50;;;;;;;6.92;78.43;99543.22;112801;1196;97655;-71
2021/09/21 04:55:39;;;;;;;22.20;10.00;;;;;;;6.93;78.24;99545.59;112774;1196;113081;-70
2021/09/21 04:58:09;;;;;;;21.00;9.90;;;;;;;6.97;78.23;99551.40;112749;1196;97571;-71
2021/09/21 05:00:37;;;;;;;20.50;9.90;;;;;;;7.00;78.08;99552.67;113041;1195;107494;-70
2021/09/21 05:03:05;;;;;;;21.20;10.10;;;;;;;7.02;78.02;99553.62;112946;1195;97615;-72
2021/09/21 05:05:35;;;;;;;22.00;10.10;;;;;;;7.04;78.19;99554.24;113200;1195;97601;-71
2021/09/21 05:08:03;;;;;;;21.50;10.10;;;;;;;7.04;78.15;99554.23;113036;1195;111194;-73
2021/09/21 05:10:32;;;;;;;20.90;10.30;;;;;;;7.05;78.16;99556.64;113189;1195;97551;-71
2021/09/21 05:13:01;;;;;;;21.00;9.60;;;;;;;7.05;78.18;99555.95;113196;1195;107553;-71
2021/09/21 05:15:30;;;;;;;22.60;10.90;;;;;;;7.07;78.10;99555.68;113188;1195;97642;-71
2021/09/21 05:18:00;;;;;;;24.60;11.60;;;;;;;7.07;78.14;99552.65;113217;1195;97712;-71
2021/09/21 05:20:28;;;;;;;24.10;10.40;;;;;;;7.08;78.18;99558.45;113009;1195;111160;-71
2021/09/21 05:23:00;;;;;;;24.10;11.20;;;;;;;7.08;78.01;99555.80;113191;1195;97509;-72
2021/09/21 05:25:30;;;;;;;22.60;11.10;;;;;;;7.08;78.04;99562.14;113182;1195;107542;-71
2021/09/21 05:28:00;;;;;;;23.30;10.90;;;;;;;7.09;78.14;99565.61;113177;1195;97584;-71
2021/09/21 05:30:28;;;;;;;21.00;10.20;;;;;;;7.11;78.28;99565.36;113059;1195;94943;-71
2021/09/21 05:32:59;;;;;;;23.00;10.90;;;;;;;7.12;78.22;99567.58;113159;1195;111445;-72
2021/09/21 05:35:26;;;;;;;21.90;10.70;;;;;;;7.12;78.26;99566.72;112931;1196;97878;-72
2021/09/21 05:37:55;;;;;;;21.20;10.10;;;;;;;7.11;77.95;99570.09;113155;1195;107490;-72
2021/09/21 05:40:23;;;;;;;21.30;10.40;;;;;;;7.13;78.06;99571.58;112854;1196;97570;-72
2021/09/21 05:42:52;;;;;;;22.20;10.60;;;;;;;7.13;78.12;99577.19;114853;1188;95732;-72
2021/09/21 05:45:19;;;;;;;23.40;10.40;;;;;;;7.15;78.19;99581.02;114863;1195;110958;-71
2021/09/21 05:47:48;;;;;;;19.80;10.00;;;;;;;7.16;78.02;99585.58;113540;1197;97587;-71
2021/09/21 05:50:17;;;;;;;23.20;11.30;;;;;;;7.18;78.28;99591.27;112710;1196;108149;-71
2021/09/21 05:52:46;;;;;;;20.30;9.90;;;;;;;7.20;78.19;99589.58;112797;1196;97709;-72
2021/09/21 05:55:14;;;;;;;22.30;10.60;;;;;;;7.25;78.03;99589.86;112820;1196;95031;-71
2021/09/21 05:57:44;;;;;;;24.40;10.30;;;;;;;7.28;78.07;99594.65;112665;1197;110936;-71
2021/09/21 06:00:17;;;;;;;22.90;10.50;;;;;;;7.30;78.21;99601.77;113140;1195;95035;-72
2021/09/21 06:02:45;;;;;;;21.80;10.40;;;;;;;7.32;78.10;99608.41;113163;1195;107536;-73
2021/09/21 06:05:16;;;;;;;21.80;10.10;;;;;;;7.34;78.08;99611.48;112994;1196;97676;-72
2021/09/21 06:07:48;;;;;;;23.80;10.20;;;;;;;7.34;78.19;99607.94;112869;1196;97670;-71
2021/09/21 06:10:20;;;;;;;21.10;10.10;;;;;;;7.38;78.04;99615.17;112905;1196;110869;-72
2021/09/21 06:12:51;;;;;;;21.10;10.30;;;;;;;7.40;78.09;99609.95;112863;1196;97647;-73
2021/09/21 06:15:21;;;;;;;22.80;10.00;;;;;;;7.43;78.04;99613.66;112842;1195;107509;-73
2021/09/21 06:17:52;;;;;;;23.20;9.60;;;;;;;7.44;78.04;99613.41;112965;1196;97580;-72
2021/09/21 06:20:19;;;;;;;23.50;11.70;;;;;;;7.47;78.04;99613.29;112774;1196;97723;-72
2021/09/21 06:22:48;;;;;;;26.10;11.30;;;;;;;7.53;78.24;99620.73;112929;1195;110948;-71
2021/09/21 06:25:18;;;;;;;23.60;11.80;;;;;;;7.56;78.16;99624.29;113131;1195;97722;-71
2021/09/21 06:27:47;;;;;;;23.20;11.10;;;;;;;7.62;78.15;99627.54;112824;1195;107606;-71
2021/09/21 06:30:18;;;;;;;20.10;9.50;;;;;;;7.69;78.28;99632.11;113047;1195;97621;-71
2021/09/21 06:32:46;;;;;;;23.80;10.70;;;;;;;7.73;78.20;99629.98;113131;1195;97721;-71
2021/09/21 06:35:16;;;;;;;20.40;9.70;;;;;;;7.77;78.22;99632.93;112925;1196;111178;-71
2021/09/21 06:37:47;;;;;;;21.90;10.60;;;;;;;7.80;77.95;99631.21;113120;1195;97689;-71
2021/09/21 06:40:17;;;;;;;21.60;10.30;;;;;;;7.85;78.31;99630.05;113151;1195;106773;-71
2021/09/21 06:42:48;;;;;;;22.00;10.30;;;;;;;7.93;78.16;99632.64;113090;1195;97656;-71
2021/09/21 06:45:16;;;;;;;21.40;10.20;;;;;;;7.99;78.11;99640.43;113200;1195;97679;-72
2021/09/21 06:47:44;;;;;;;22.80;10.30;;;;;;;7.99;78.19;99639.73;113193;1195;111110;-71
2021/09/21 06:50:15;;;;;;;22.20;10.50;;;;;;;7.96;78.15;99640.57;113136;1195;97646;-72
2021/09/21 06:52:45;;;;;;;26.40;10.60;;;;;;;7.97;78.17;99638.59;113090;1195;108315;-71
2021/09/21 06:55:15;;;;;;;21.00;9.90;;;;;;;8.02;78.22;99638.70;113115;1195;97804;-71
2021/09/21 06:57:49;;;;;;;20.80;9.50;;;;;;;8.07;78.05;99640.20;113151;1195;97670;-72
2021/09/21 07:00:20;;;;;;;21.60;9.90;;;;;;;8.11;78.11;99635.61;113097;1195;111040;-70
2021/09/21 07:02:53;;;;;;;20.80;9.30;;;;;;;8.19;78.10;99634.44;113122;1195;97626;-71
2021/09/21 07:05:23;;;;;;;20.50;10.20;;;;;;;8.25;78.06;99637.30;113159;1195;107449;-71
2021/09/21 07:07:52;;;;;;;21.10;9.70;;;;;;;8.35;78.02;99635.37;113148;1195;97688;-70
2021/09/21 07:10:21;;;;;;;19.70;9.10;;;;;;;8.45;78.19;99638.88;113005;1196;97587;-70
2021/09/21 07:12:48;;;;;;;20.30;9.50;;;;;;;8.55;78.29;99639.05;113163;1195;111109;-71
2021/09/21 07:15:22;;;;;;;21.70;10.20;;;;;;;8.59;77.98;99640.59;113163;1195;95678;-73
2021/09/21 07:17:54;;;;;;;21.10;9.30;;;;;;;8.66;78.27;99642.34;112972;1188;107305;-73
2021/09/21 07:20:25;;;;;;;22.50;10.00;;;;;;;8.73;78.21;99645.86;112929;1196;97950;-74
2021/09/21 07:22:55;;;;;;;21.50;8.90;;;;;;;8.83;78.21;99649.03;113136;1195;95023;-74
2021/09/21 07:25:23;;;;;;;19.20;8.00;;;;;;;8.88;78.14;99651.95;113138;1195;111040;-73
2021/09/21 07:27:53;;;;;;;20.30;8.20;;;;;;;8.96;78.07;99652.02;112986;1196;95977;-72
2021/09/21 07:30:21;;;;;;;20.20;8.50;;;;;;;9.09;78.08;99647.91;112929;1195;107529;-74
2021/09/21 07:32:51;;;;;;;20.40;8.30;;;;;;;9.22;78.05;99646.31;112991;1195;96161;-73
2021/09/21 07:35:21;;;;;;;18.70;8.00;;;;;;;9.40;78.08;99641.20;112962;1195;97663;-73
2021/09/21 07:37:49;;;;;;;16.80;7.90;;;;;;;9.51;77.98;99642.33;112970;1197;110245;-74
2021/09/21 07:40:20;;;;;;;19.70;8.40;;;;;;;9.56;77.93;99640.96;113005;1196;96930;-73
2021/09/21 07:42:52;;;;;;;19.20;7.90;;;;;;;9.63;78.04;99644.09;112984;1196;107522;-72
2021/09/21 07:45:20;;;;;;;15.90;7.00;;;;;;;9.75;78.07;99646.77;112935;1196;97634;-75
2021/09/21 07:47:49;;;;;;;17.90;6.90;;;;;;;9.88;77.96;99641.02;112701;1196;97657;-73
2021/09/21 07:50:17;;;;;;;17.60;7.50;;;;;;;10.09;77.91;99642.24;113679;1196;111157;-74
2021/09/21 07:52:45;;;;;;;16.60;6.80;;;;;;;10.35;77.99;99645.61;112912;1196;97715;-74
2021/09/21 07:55:15;;;;;;;18.30;7.30;;;;;;;10.60;77.92;99645.13;112672;1196;107555;-73
2021/09/21 07:57:45;;;;;;;16.30;6.30;;;;;;;10.79;77.81;99643.57;112997;1195;95772;-73
2021/09/21 08:00:20;;;;;;;17.70;6.50;;;;;;;10.94;77.77;99640.49;113142;1195;98022;-73
2021/09/21 08:02:49;;;;;;;15.50;6.70;;;;;;;11.02;77.55;99642.28;113087;1195;111278;-73
2021/09/21 08:05:20;;;;;;;15.80;5.90;;;;;;;11.15;77.64;99636.64;113042;1195;97650;-73
2021/09/21 08:07:50;;;;;;;14.40;6.30;;;;;;;11.27;77.52;99636.55;112874;1196;107527;-72
2021/09/21 08:10:19;;;;;;;16.60;6.50;;;;;;;11.38;77.55;99638.88;113120;1195;97625;-74
2021/09/21 08:12:49;;;;;;;15.00;5.80;;;;;;;11.43;77.52;99632.61;113153;1195;97574;-73
2021/09/21 08:15:18;;;;;;;12.80;5.70;;;;;;;11.52;77.40;99637.20;113061;1195;112366;-74
2021/09/21 08:17:48;;;;;;;13.10;5.60;;;;;;;11.62;77.41;99635.09;113002;1195;95733;-75
2021/09/21 08:20:15;;;;;;;14.90;5.40;;;;;;;11.83;77.20;99637.80;113139;1195;107493;-74
2021/09/21 08:22:43;;;;;;;13.70;5.90;;;;;;;12.05;77.15;99635.25;113130;1195;98720;-73
2021/09/21 08:25:13;;;;;;;12.50;5.40;;;;;;;12.57;76.94;99631.77;113222;1195;95138;-72
2021/09/21 08:27:42;;;;;;;10.50;5.50;;;;;;;12.92;76.79;99632.45;113050;1195;111299;-73
2021/09/21 08:30:30;;;;;;;12.50;5.30;;;;;;;13.93;76.31;99637.23;113046;1196;97627;-73
2021/09/21 08:33:01;;;;;;;11.70;5.20;;;;;;;14.80;76.03;99630.94;112973;1195;106523;-73
2021/09/21 08:35:32;;;;;;;9.80;4.80;;;;;;;15.83;75.78;99632.77;113101;1195;98248;-74
2021/09/21 08:38:03;;;;;;;11.00;5.10;;;;;;;16.46;75.67;99630.09;113144;1195;97631;-74
2021/09/21 08:40:33;;;;;;;14.00;5.80;;;;;;;16.50;75.80;99635.77;113196;1195;110777;-74
2021/09/21 08:43:01;;;;;;;11.20;4.90;;;;;;;16.12;75.79;99639.64;113180;1195;96474;-73
2021/09/21 08:45:31;;;;;;;8.80;4.40;;;;;;;16.49;75.67;99638.55;113837;1195;107548;-74
2021/09/21 08:48:03;;;;;;;12.10;5.30;;;;;;;16.29;75.83;99645.35;113098;1195;97551;-73
2021/09/21 08:50:31;;;;;;;9.70;4.80;;;;;;;16.28;75.40;99648.64;113200;1195;97742;-72
2021/09/21 08:52:59;;;;;;;9.50;4.50;;;;;;;15.82;75.59;99643.80;113108;1195;111344;-73
2021/09/21 08:55:27;;;;;;;14.60;5.10;;;;;;;15.67;75.47;99649.87;112996;1196;97577;-73
2021/09/21 08:57:59;;;;;;;13.20;4.70;;;;;;;15.64;75.63;99647.45;113082;1195;107572;-72
2021/09/21 09:00:33;;;;;;;8.20;4.10;;;;;;;15.63;75.34;99654.64;113082;1195;97556;-73
2021/09/21 09:03:07;;;;;;;10.60;4.50;;;;;;;15.13;74.85;99658.95;113016;1195;98373;-73
2021/09/21 09:05:53;;;;;;;9.30;4.10;;;;;;;14.89;74.44;99663.05;113227;1195;111873;-73
2021/09/21 09:08:34;;;;;;;10.50;4.10;;;;;;;15.01;74.41;99665.11;113095;1195;97668;-71
2021/09/21 09:11:14;;;;;;;10.90;4.20;;;;;;;15.40;74.46;99659.58;113039;1196;107569;-74
2021/09/21 09:13:45;;;;;;;9.80;4.30;;;;;;;15.71;74.21;99661.91;113066;1195;97716;-74
2021/09/21 09:16:16;;;;;;;8.40;4.10;;;;;;;15.69;74.10;99669.35;113090;1197;97571;-74
2021/09/21 09:19:00;;;;;;;8.10;4.40;;;;;;;15.30;73.94;99681.50;113101;1195;111176;-75
2021/09/21 09:21:33;;;;;;;11.40;4.70;;;;;;;14.76;73.14;99692.86;113160;1195;97565;-74
2021/09/21 09:24:03;;;;;;;;;;;;;;;14.29;73.34;99704.36;112916;1197;107487;-74
2021/09/21 09:26:36;;;;;;;10.50;4.70;;;;;;;14.02;73.29;99699.79;112810;1196;95827;-74
2021/09/21 09:29:10;;;;;;;8.00;4.20;;;;;;;14.26;73.39;99703.29;113098;1195;97510;-75
2021/09/21 09:31:42;;;;;;;11.30;4.70;;;;;;;14.43;73.30;99700.92;112845;1197;109819;-72
2021/09/21 09:34:14;;;;;;;10.40;4.30;;;;;;;14.72;73.16;99698.13;112431;1197;95868;-76
2021/09/21 09:36:47;;;;;;;10.90;4.30;;;;;;;14.60;72.85;99695.90;113192;1195;107099;-76
2021/09/21 09:39:18;;;;;;;10.80;4.30;;;;;;;14.29;72.65;99704.66;113112;1195;95049;-75
2021/09/21 09:41:49;;;;;;;8.30;4.40;;;;;;;13.99;72.50;99698.23;113134;1195;97553;-74
2021/09/21 09:44:23;;;;;;;9.20;4.40;;;;;;;13.75;72.50;99699.35;113125;1195;109307;-74
2021/09/21 09:46:59;;;;;;;7.10;4.10;;;;;;;13.52;72.24;99700.55;113123;1195;98081;-74
2021/09/21 09:49:45;;;;;;;11.40;5.00;;;;;;;13.36;72.20;99694.38;113110;1195;107811;-74
2021/09/21 09:52:17;;;;;;;12.10;4.50;;;;;;;13.17;72.01;99695.81;113115;1195;97621;-75
2021/09/21 09:54:48;;;;;;;10.00;4.40;;;;;;;12.90;71.85;99694.17;113148;1195;98733;-75
2021/09/21 09:57:16;;;;;;;9.20;4.70;;;;;;;12.77;71.93;99691.71;113166;1195;111412;-74
2021/09/21 09:59:44;;;;;;;9.80;4.20;;;;;;;12.77;71.90;99682.44;113072;1195;97369;-74
2021/09/21 10:02:15;;;;;;;12.50;4.90;;;;;;;12.88;71.86;99678.52;113106;1195;107995;-73
2021/09/21 10:04:46;;;;;;;11.20;4.60;;;;;;;13.01;71.81;99669.58;113089;1195;97602;-73
2021/09/21 10:07:14;;;;;;;7.70;3.60;;;;;;;13.11;71.52;99674.16;113142;1195;97563;-73
2021/09/21 10:09:42;;;;;;;9.20;3.90;;;;;;;13.21;71.40;99681.74;113075;1197;111169;-75
2021/09/21 10:12:13;;;;;;;8.30;3.70;;;;;;;13.34;71.16;99680.98;113176;1195;95419;-72
2021/09/21 10:14:45;;;;;;;7.70;3.90;;;;;;;13.38;71.03;99679.29;113172;1195;107562;-73
2021/09/21 10:17:25;;;;;;;10.00;4.50;;;;;;;13.37;70.77;99680.80;113107;1195;97639;-74
2021/09/21 10:19:56;;;;;;;11.10;4.40;;;;;;;13.46;70.88;99677.69;113149;1195;97607;-73
2021/09/21 10:22:31;;;;;;;10.70;4.60;;;;;;;13.57;70.64;99689.17;113147;1195;111195;-76
2021/09/21 10:25:06;;;;;;;8.70;4.10;;;;;;;13.67;70.47;99695.70;113030;1196;97520;-74
2021/09/21 10:27:39;;;;;;;10.30;4.40;;;;;;;13.74;70.41;99698.20;113167;1195;107558;-72
2021/09/21 10:30:10;;;;;;;6.30;3.40;;;;;;;13.76;69.97;99681.68;113123;1195;96066;-75
2021/09/21 10:32:47;;;;;;;8.20;4.20;;;;;;;13.75;69.94;99684.55;113114;1196;97550;-75
2021/09/21 10:35:21;;;;;;;6.80;4.00;;;;;;;13.67;69.72;99685.49;113155;1197;112197;-75
2021/09/21 10:38:08;;;;;;;10.40;4.50;;;;;;;13.55;69.67;99690.19;113001;1195;97596;-74
2021/09/21 10:40:44;;;;;;;7.90;3.90;;;;;;;13.31;69.25;99699.36;112982;1195;107260;-77
2021/09/21 10:43:58;;;;;;;9.30;4.10;;;;;;;13.04;68.54;99692.60;113129;1195;97544;-75
2021/09/21 10:46:28;;;;;;;13.00;4.50;;;;;;;12.76;68.64;99703.39;112925;1198;97755;-74
2021/09/21 10:49:01;;;;;;;9.60;4.70;;;;;;;12.67;68.62;99698.48;113181;1194;111251;-75
2021/09/21 10:51:31;;;;;;;10.60;4.80;;;;;;;12.60;68.53;99694.90;113151;1195;97556;-76
2021/09/21 10:54:03;;;;;;;10.90;4.20;;;;;;;12.53;68.56;99693.05;113075;1195;107563;-79
2021/09/21 10:56:40;;;;;;;10.60;4.30;;;;;;;12.48;68.31;99692.02;113123;1195;97659;-75
2021/09/21 10:59:16;;;;;;;8.60;4.20;;;;;;;12.45;68.36;99684.73;113063;1197;97631;-76
2021/09/21 11:01:50;;;;;;;10.60;4.60;;;;;;;12.40;68.24;99688.86;113018;1196;111156;-75
2021/09/21 11:04:18;;;;;;;10.00;4.00;;;;;;;12.47;68.28;99690.63;113168;1195;97718;-74
2021/09/21 11:06:47;;;;;;;9.90;4.50;;;;;;;12.61;68.36;99685.55;113132;1195;107643;-75
2021/09/21 11:09:24;;;;;;;10.30;4.60;;;;;;;12.69;68.36;99686.05;113141;1195;97573;-75
2021/09/21 11:12:03;;;;;;;8.70;4.00;;;;;;;12.66;68.08;99682.20;113029;1195;95075;-74
2021/09/21 11:14:31;;;;;;;9.80;4.50;;;;;;;12.59;68.05;99678.60;113076;1198;111231;-73
2021/09/21 11:17:00;;;;;;;12.80;4.30;;;;;;;12.63;67.98;99678.33;113129;1195;95766;-73
2021/09/21 11:19:34;;;;;;;9.80;3.80;;;;;;;12.70;67.82;99677.82;113115;1195;107590;-74
2021/09/21 11:22:10;;;;;;;8.30;3.90;;;;;;;12.76;67.56;99675.25;112858;1196;95160;-74
2021/09/21 11:24:39;;;;;;;9.10;4.40;;;;;;;12.80;67.50;99669.07;113205;1195;97658;-71
2021/09/21 11:27:11;;;;;;;11.80;5.10;;;;;;;12.95;67.71;99661.43;113090;1195;110973;-74
2021/09/21 11:29:41;;;;;;;6.50;3.80;;;;;;;13.11;67.66;99664.35;112685;1197;98358;-71
2021/09/21 11:32:22;;;;;;;9.50;3.60;;;;;;;13.27;67.69;99662.64;113084;1195;108016;-74
2021/09/21 11:34:59;;;;;;;11.90;4.30;;;;;;;13.43;67.30;99658.85;112847;1195;97602;-75
2021/09/21 11:37:28;;;;;;;8.40;4.00;;;;;;;13.58;67.30;99665.86;113083;1195;97578;-74
2021/09/21 11:40:00;;;;;;;9.30;4.10;;;;;;;13.64;67.21;99654.16;113182;1195;110040;-74
2021/09/21 11:42:32;;;;;;;7.90;4.10;;;;;;;13.71;67.12;99665.27;113102;1195;97588;-75